This is the latest recevied weather packets stored in our database for station/object CA3DJL-10. If no packets are shown the sender has not sent any weather packets the latest 10 day(s).
| Time | Temp. | Humidity | Pressure | Rain* | Wind** | Luminosity | Snow |
|---|---|---|---|---|---|---|---|
| 1777810150 | 12.78° C | 36% | 986 hPa | - | - | - | - |
| 1777809249 | 12.22° C | 38% | 986 hPa | - | - | - | - |
| 1777808347 | 12.78° C | 35% | 986 hPa | - | - | - | - |
| 1777807446 | 12.78° C | 35% | 986 hPa | - | - | - | - |
| 1777806545 | 13.33° C | 34% | 986 hPa | - | - | - | - |
| 1777805644 | 13.33° C | 34% | 986 hPa | - | - | - | - |
| 1777804743 | 13.33° C | 34% | 985 hPa | - | - | - | - |
| 1777803842 | 13.89° C | 34% | 985 hPa | - | - | - | - |
| 1777802941 | 13.89° C | 35% | 985 hPa | - | - | - | - |
| 1777802040 | 13.89° C | 35% | 986 hPa | - | - | - | - |
| 1777801138 | 13.89° C | 38% | 986 hPa | - | - | - | - |
| 1777800237 | 14.44° C | 37% | 985 hPa | - | - | - | - |
| 1777799336 | 15° C | 33% | 985 hPa | - | - | - | - |
| 1777798435 | 15° C | 33% | 985 hPa | - | - | - | - |
| 1777797534 | 15° C | 33% | 985 hPa | - | - | - | - |
| 1777796633 | 15.56° C | 33% | 985 hPa | - | - | - | - |
| 1777795732 | 15.56° C | 33% | 985 hPa | - | - | - | - |
| 1777794831 | 15.56° C | 33% | 986 hPa | - | - | - | - |
| 1777793930 | 16.11° C | 33% | 986 hPa | - | - | - | - |
| 1777793029 | 16.11° C | 34% | 986 hPa | - | - | - | - |
| 1777792128 | 16.67° C | 33% | 986 hPa | - | - | - | - |
| 1777791228 | 16.67° C | 33% | 986 hPa | - | - | - | - |
| 1777790326 | 17.22° C | 33% | 986 hPa | - | - | - | - |
| 1777789425 | 17.22° C | 33% | 986 hPa | - | - | - | - |
| 1777788523 | 17.78° C | 33% | 986 hPa | - | - | - | - |
* Rain since midnight (hover to see other rain measurements)
** Current wind speed in m/s (hover to see current wind gust speed)